Marco Gutierrez

Scout - Atlas
3 Dez 2028
Sonntag
Verarbeitung

Persönlichkeit

Anpassungsfähigkeit (7) Ehrgeiz (7) Kontroverse (1) Loyalität (7) Druck (5) Professionalität (16) Fairness (2) Temperament (2)

Profil

Trainerstil Demokratisch
Lizenz Nationale A
Entschlossenheit 13
Menschenführung 13
Motivation 5
Disziplin 10
Arbeitszufriedenheit
100%
Ermüdung
0%
Rolle Scout
Gehalt 59.2K p/W
Vertrag 14.03.2029

Leistung

Verhalten Gut
Trainingseffektivität
52%
Spielerentwicklung
20%
Verletzungsprävention
35%
Taktische Umsetzung
45%

Letzte Ereignisse

Spieler begutachtet jetzt
Nahm an einer Scouting-Besprechung teil jetzt
Empfahl ein Transferziel jetzt
Nahm an einer Scouting-Besprechung teil jetzt
Nahm an einer Scouting-Besprechung teil 7T her
Spieler begutachtet 7T her
Spieler begutachtet 7T her
Spieler begutachtet 7T her

Aktuell beobachtet

96
Spieler Verein Status Fähigkeit Vertrauen Beobachtet Zuletzt beobachtet Letzte Stimme
Matias Siltanen Malmo FF Aktiv 138 / 141 40% 6 30.11.2028 -
Mateo Faure BATE Aktiv 102 / 96 40% 6 30.11.2028 -
Roberto Medina La Equidad Aktiv 82 / 92 40% 2 28.11.2028 -
Martín Jiménez Iquique Aktiv 102 / 98 40% 5 27.11.2028 -
Chris Rigg West Ham United Aktiv 147 / 146 40% 2 26.11.2028 -
Aytor Herrera Mineros de Guayana Aktiv 80 / 91 40% 4 25.11.2028 -
Matías Magdaleno Estudiantes Aktiv 98 / 123 40% 1 25.11.2028 -
Christos Mouzakitis Hull City Aktiv 149 / 150 40% 5 24.11.2028 -
Luis Otávio Orlando City Aktiv 112 / 135 40% 3 24.11.2028 -
Felipe Varela Trujillanos Aktiv 99 / 88 40% 2 20.11.2028 -
Francisco Machis Llaneros Aktiv 88 / 109 40% 2 19.11.2028 -
Buba Sangaré Elche Aktiv 137 / 129 40% 4 17.11.2028 -
Tiago Gordillo San Miguel Aktiv 101 / 101 40% 2 17.11.2028 -
Samuel Molano Patriotas Aktiv 97 / 94 40% 1 16.11.2028 -
Celías Ingenthron Platense Aktiv 114 / 141 40% 4 15.11.2028 -
Máximo Munarriz San Telmo Aktiv 101 / 92 40% 3 15.11.2028 -
Diego León Rotherham United Aktiv 120 / 123 40% 1 14.11.2028 -
Davinchi Getafe Aktiv 129 / 140 40% 1 13.11.2028 -
Peyton Miller New England Revolution Aktiv 119 / 117 40% 4 11.11.2028 -
Jorge Salinas Racing Santander Aktiv 131 / 134 40% 1 11.11.2028 -
Alejandro Almaraz NK Celje Aktiv 132 / 139 40% 1 10.11.2028 -
Joel Ezra Enyimba Aktiv 83 / 87 40% 2 08.11.2028 -
Sebastian Rodriguez Houston Dynamo Aktiv 128 / 114 40% 2 07.11.2028 -
Anderson Acevedo Bogota Aktiv 92 / 113 40% 1 07.11.2028 -
Jan Cedilnik Chikhura Aktiv 85 / 74 40% 2 06.11.2028 -
Honest Ahanor Atalanta Aktiv 144 / 154 40% 7 05.11.2028 -
Tyler Fletcher Rotherham United Aktiv 108 / 134 40% 2 05.11.2028 -
Harrison Armstrong Ipswich Town Aktiv 149 / 145 40% 2 04.11.2028 -
Facundo Balatti Penarol Aktiv 119 / 126 40% 1 02.11.2028 -
Ayyoub Bouaddi Stoke City Aktiv 156 / 160 40% 1 31.10.2028 -
Tobías Ramírez River Plate Aktiv 118 / 131 40% 3 29.10.2028 -
Luis Maturana Alianza Petrolera Aktiv 94 / 88 40% 3 29.10.2028 -
Óscar Hinojosa Metropolitanos Aktiv 78 / 94 40% 2 25.10.2028 -
Alejandro Tapia Central Norte Aktiv 76 / 86 40% 2 22.10.2028 -
Mauro Matorras Central Norte Aktiv 77 / 111 40% 2 19.10.2028 -
Gideon Manaseh Ikorodu City Aktiv 92 / 109 40% 1 18.10.2028 -
Máximo Magnoli Ferro Carril Oeste Aktiv 81 / 103 40% 1 14.10.2028 -
Estanislao López Colón Aktiv 98 / 84 40% 1 11.10.2028 -
Giovanni Leoni Lincoln City Aktiv 149 / 163 40% 5 09.10.2028 -
Mateo Caballero Defensor Sporting Aktiv 118 / 97 40% 1 07.10.2028 -
Konta Ismaily Aktiv 87 / 93 40% 2 20.06.2028 -
Lucas Varaldo Morelia Aktiv 127 / 110 58% 1 01.06.2028 Befürworten
Trey Nyoni Rotherham United Aktiv 144 / 140 40% 1 01.06.2028 -
Bernardo Lima Porto Aktiv 103 / 126 40% 1 29.05.2028 -
Andrea Cogoni Cosenza Aktiv 107 / 126 40% 1 29.05.2028 -
Martim Cunha Porto Aktiv 115 / 123 40% 4 28.05.2028 -
Josh Nichols Oldham Athletic Aktiv 114 / 121 40% 2 28.05.2028 -
Riquelme Thompson-Jones Accrington Stanley Aktiv 108 / 103 40% 4 26.05.2028 -
Daniel Banjaqui Benfica Aktiv 131 / 126 40% 2 25.05.2028 -
Jorthy Mokio ADO Den Haag Aktiv 140 / 141 40% 3 24.05.2028 -
Simone Suppa Virtus Verona Aktiv 94 / 83 40% 3 20.05.2028 -
Ayden Heaven Portsmouth Aktiv 139 / 142 40% 3 15.05.2028 -
Lucas Høgsberg RC Strasbourg Aktiv 134 / 139 40% 6 04.05.2028 -
Héctor Fort Real Sociedad Aktiv 141 / 153 40% 1 03.05.2028 -
Musa Danjuma Umraniyespor Aktiv 93 / 110 40% 1 30.04.2028 -
Josh Acheampong Everton Aktiv 142 / 143 40% 2 27.04.2028 -
Pape Diong Westerlo Aktiv 118 / 136 40% 2 24.04.2028 -
Gustavo Albarracín Alavés Aktiv 123 / 122 40% 1 16.04.2028 -
Edwin Cerrillo Club America Verhandlung 128 / 104 55% 1 17.01.2028 Beobachten
Marco Farfan Tigres Aktiv 128 / 124 55% 1 01.01.2028 -
Uziel García Morelia Aktiv 119 / 113 55% 1 01.06.2027 -
Eliás Montiel Borussia Dortmund Aktiv 130 / 145 40% 2 31.05.2027 -
Riley Owen Stevenage Aktiv 94 / 114 40% 1 30.05.2027 -
Caleb Yirenkyi Coventry City Aktiv 125 / 127 40% 4 24.05.2027 -
Tiago Freitas Benfica Aktiv 116 / 105 40% 2 22.05.2027 -
Kazunari Kita Real Sociedad Aktiv 103 / 116 40% 2 20.05.2027 -
Charlie Gray Fleetwood Town Aktiv 92 / 97 40% 1 20.05.2027 -
Tommaso Cecotti Carpi Aktiv 96 / 103 40% 2 13.05.2027 -
Zane Albarus Shrewsbury Town Aktiv 102 / 97 40% 2 13.05.2027 -
Sascha Britschgi AC Milan Aktiv 131 / 121 40% 1 11.05.2027 -
Edwin Asamoah Berekum Chelsea Aktiv 96 / 92 40% 1 05.05.2027 -
Victor Hernandez Santa Fe Aktiv 114 / 138 40% 1 29.04.2027 -
Lucas Agazzi Villarreal Aktiv 126 / 125 40% 1 25.04.2027 -
Henrique Silva Santa Clara Aktiv 97 / 126 40% 2 19.04.2027 -
Jenson Jones Walsall Aktiv 93 / 109 40% 3 16.04.2027 -
James Dornelly Peterborough United Aktiv 96 / 115 40% 1 06.04.2027 -
Louis Leroux FC Nantes Aktiv 126 / 137 40% 1 29.03.2027 -
Olivier Leroux Mouscron Aktiv 95 / 101 40% 1 28.03.2027 -
Joaquin Seys Club Brugge Aktiv 137 / 141 40% 1 15.03.2027 -
Rivaldo Mkhize Black Aces Aktiv 83 / 76 40% 1 04.03.2027 -
Leandro Martins Benfica Aktiv 97 / 101 40% 1 01.03.2027 -
Brooke Norton-Cuffy Hull City Aktiv 145 / 149 40% 1 31.12.2026 -
Dara O'Shea Ipswich Town Aktiv 147 / 129 40% 1 31.12.2026 -
Santiago González Tigre Aktiv 111 / 116 40% 1 25.12.2026 -
Facundo Miño Deportivo Riestra Aktiv 123 / 129 40% 1 25.12.2026 -
Toby Collyer West Bromwich Albion Aktiv 117 / 123 40% 1 23.12.2026 -
Omar Campos Cruz Azul Aktiv 134 / 120 40% 1 22.12.2026 -
Gastón Benedetti Estudiantes Aktiv 134 / 146 40% 1 22.12.2026 -
Marco Pellegrino Boca Juniors Aktiv 127 / 134 40% 1 19.12.2026 -
Pedro Ramírez Deportivo Riestra Aktiv 132 / 101 40% 1 18.12.2026 -
Welington Southampton Aktiv 118 / 140 40% 1 18.12.2026 -
Ramón Juárez Club America Aktiv 142 / 139 40% 1 16.12.2026 -
Aarón Mejía Tijuana Aktiv 122 / 114 40% 1 08.12.2026 -
Alejandro Gómez Tijuana Aktiv 131 / 122 40% 1 08.12.2026 -
Víctor Machado Zorya Aktiv 85 / 95 40% 1 06.10.2026 -
Youssoufa Moukoko FC Copenhagen Aktiv 126 / 108 40% 1 06.10.2026 -